createdAt,value
2022-10-23T00:01:41.950Z,96524.13
2022-10-23T00:04:12.967Z,96521.53
2022-10-23T00:06:39.880Z,96525.47
2022-10-23T00:09:08.694Z,96525.31
2022-10-23T00:11:35.928Z,96520.94
2022-10-23T00:14:05.635Z,96516.31
2022-10-23T00:16:32.285Z,96515.56
2022-10-23T00:18:59.201Z,96517.31
2022-10-23T00:21:26.311Z,96512.88
2022-10-23T00:23:52.960Z,96510.41
2022-10-23T00:26:20.402Z,96518.75
2022-10-23T00:28:51.434Z,96513.25
2022-10-23T00:31:18.736Z,96511.06
2022-10-23T00:33:46.486Z,96504.25
2022-10-23T00:36:15.770Z,96506.63
2022-10-23T00:38:42.605Z,96502.34
2022-10-23T00:41:14.172Z,96503.56
2022-10-23T00:44:03.942Z,96509.59
2022-10-23T00:46:31.158Z,96503.50
2022-10-23T00:48:58.624Z,96502.78
2022-10-23T00:51:29.490Z,96508.25
2022-10-23T00:54:06.508Z,96507.72
2022-10-23T00:56:46.398Z,96496.88
2022-10-23T00:59:13.395Z,96511.50
2022-10-23T01:01:41.012Z,96498.28
2022-10-23T01:04:10.483Z,96495.81
2022-10-23T01:06:45.337Z,96496.53
2022-10-23T01:09:21.184Z,96498.06
2022-10-23T01:11:56.445Z,96494.28
2022-10-23T01:15:08.703Z,96488.84
2022-10-23T01:17:40.996Z,96501.69
2022-10-23T01:20:33.058Z,96495.16
2022-10-23T01:23:22.450Z,96496.69
2022-10-23T01:26:22.875Z,96488.91
2022-10-23T01:28:56.332Z,96483.53
2022-10-23T01:31:51.364Z,96496.47
2022-10-23T01:34:28.559Z,96487.13
2022-10-23T01:36:57.223Z,96489.09
2022-10-23T01:39:37.521Z,96487.06
2022-10-23T01:42:10.855Z,96485.75
2022-10-23T01:44:49.639Z,96491.13
2022-10-23T01:49:50.938Z,96490.06
2022-10-23T01:52:18.907Z,96480.06
2022-10-23T01:54:47.683Z,96489.25
2022-10-23T01:57:18.662Z,96483.81
2022-10-23T01:59:51.270Z,96482.56
2022-10-23T02:02:20.725Z,96476.03
2022-10-23T02:05:15.915Z,96473.06
2022-10-23T02:07:43.652Z,96468.44
2022-10-23T02:10:11.381Z,96470.56
2022-10-23T02:12:43.918Z,96464.88
2022-10-23T02:15:21.546Z,96461.75
2022-10-23T02:18:25.527Z,96453.13
2022-10-23T02:20:55.953Z,96455.91
2022-10-23T02:23:28.628Z,96452.25
2022-10-23T02:26:11.920Z,96455.00
2022-10-23T02:28:52.088Z,96449.69
2022-10-23T02:31:22.635Z,96442.56
2022-10-23T02:33:49.460Z,96440.63
2022-10-23T02:36:16.492Z,96446.13
2022-10-23T02:38:44.817Z,96442.59
2022-10-23T02:41:29.965Z,96442.69
2022-10-23T02:44:10.651Z,96440.50
2022-10-23T02:46:52.639Z,96436.84
2022-10-23T02:49:26.221Z,96435.81
2022-10-23T02:52:14.924Z,96437.66
2022-10-23T02:54:50.221Z,96434.91
2022-10-23T02:57:19.942Z,96433.59
2022-10-23T03:00:07.756Z,96426.34
2022-10-23T03:02:52.408Z,96427.44
2022-10-23T03:05:23.968Z,96428.56
2022-10-23T03:07:51.876Z,96426.81
2022-10-23T03:10:18.840Z,96433.75
2022-10-23T03:12:47.154Z,96425.94
2022-10-23T03:15:13.750Z,96430.22
2022-10-23T03:17:41.353Z,96435.00
2022-10-23T03:20:09.287Z,96430.34
2022-10-23T03:22:36.228Z,96430.34
2022-10-23T03:25:03.079Z,96437.88
2022-10-23T03:30:01.359Z,96443.03
2022-10-23T03:32:28.019Z,96440.84
2022-10-23T03:34:54.590Z,96437.53
2022-10-23T03:37:21.261Z,96434.06
2022-10-23T03:39:47.866Z,96435.69
2022-10-23T03:42:14.583Z,96437.59
2022-10-23T03:44:41.163Z,96430.09
2022-10-23T03:47:09.911Z,96426.78
2022-10-23T03:49:36.760Z,96428.41
2022-10-23T03:52:03.767Z,96426.78
2022-10-23T03:54:30.399Z,96431.16
2022-10-23T03:56:57.840Z,96425.88
2022-10-23T03:59:24.759Z,96420.97
2022-10-23T04:01:51.921Z,96422.47
2022-10-23T04:04:18.855Z,96417.56
2022-10-23T04:06:45.504Z,96417.56
2022-10-23T04:11:39.732Z,96417.19
2022-10-23T04:14:06.366Z,96415.50
2022-10-23T04:16:32.996Z,96419.50
2022-10-23T04:18:59.624Z,96416.75
2022-10-23T04:21:26.233Z,96425.88
2022-10-23T04:23:52.851Z,96420.03
2022-10-23T04:26:19.510Z,96424.81
2022-10-23T04:28:46.104Z,96428.53
2022-10-23T04:31:13.013Z,96419.59
2022-10-23T04:33:39.579Z,96417.44
2022-10-23T04:36:06.587Z,96425.41
2022-10-23T04:38:33.214Z,96423.59
2022-10-23T04:40:59.783Z,96424.63
2022-10-23T04:43:26.386Z,96421.84
2022-10-23T04:45:52.997Z,96421.38
2022-10-23T04:48:19.638Z,96422.91
2022-10-23T04:50:57.806Z,96428.97
2022-10-23T04:53:24.932Z,96430.63
2022-10-23T04:55:52.934Z,96431.06
2022-10-23T04:58:19.826Z,96432.38
2022-10-23T05:00:47.403Z,96425.78
2022-10-23T05:03:15.319Z,96420.81
2022-10-23T05:05:42.728Z,96415.91
2022-10-23T05:08:12.259Z,96412.56
2022-10-23T05:10:41.772Z,96419.03
2022-10-23T05:13:08.351Z,96421.69
2022-10-23T05:15:35.180Z,96418.06
2022-10-23T05:18:12.053Z,96415.81
2022-10-23T05:20:39.944Z,96402.91
2022-10-23T05:23:10.020Z,96396.38
2022-10-23T05:25:37.242Z,96393.13
2022-10-23T05:28:04.108Z,96394.69
2022-10-23T05:30:33.131Z,96385.19
2022-10-23T05:33:01.651Z,96388.53
2022-10-23T05:35:29.892Z,96384.38
2022-10-23T05:37:59.016Z,96385.41
2022-10-23T05:40:25.992Z,96393.97
2022-10-23T05:42:52.659Z,96390.19
2022-10-23T05:45:19.669Z,96402.03
2022-10-23T05:47:47.281Z,96406.72
2022-10-23T05:50:13.885Z,96408.06
2022-10-23T05:52:40.639Z,96403.47
2022-10-23T05:55:07.658Z,96400.94
2022-10-23T05:57:34.373Z,96406.31
2022-10-23T06:00:01.003Z,96401.16
2022-10-23T06:02:27.931Z,96406.69
2022-10-23T06:04:54.619Z,96406.88
2022-10-23T06:07:30.090Z,96412.16
2022-10-23T06:09:59.154Z,96408.69
2022-10-23T06:12:25.734Z,96414.56
2022-10-23T06:14:52.354Z,96408.59
2022-10-23T06:17:19.012Z,96408.25
2022-10-23T06:19:46.273Z,96401.94
2022-10-23T06:22:13.349Z,96405.41
2022-10-23T06:24:39.990Z,96409.63
2022-10-23T06:27:06.616Z,96403.75
2022-10-23T06:29:33.233Z,96405.41
2022-10-23T06:31:59.839Z,96405.41
2022-10-23T06:34:26.439Z,96402.94
2022-10-23T06:36:53.045Z,96402.53
2022-10-23T06:39:21.300Z,96404.03
2022-10-23T06:41:48.010Z,96408.22
2022-10-23T06:44:14.614Z,96401.06
2022-10-23T06:46:41.276Z,96403.16
2022-10-23T06:49:07.971Z,96405.22
2022-10-23T06:51:34.584Z,96407.75
2022-10-23T06:54:01.232Z,96409.28
2022-10-23T06:56:29.359Z,96409.69
2022-10-23T06:58:56.661Z,96410.53
2022-10-23T07:01:23.481Z,96408.78
2022-10-23T07:03:50.106Z,96410.78
2022-10-23T07:06:16.722Z,96408.13
2022-10-23T07:08:43.296Z,96400.84
2022-10-23T07:11:11.801Z,96404.50
2022-10-23T07:13:39.565Z,96402.91
2022-10-23T07:16:17.964Z,96393.94
2022-10-23T07:18:45.294Z,96392.41
2022-10-23T07:21:11.943Z,96399.13
2022-10-23T07:23:38.611Z,96402.72
2022-10-23T07:26:16.228Z,96397.97
2022-10-23T07:28:45.171Z,96402.03
2022-10-23T07:31:12.982Z,96403.13
2022-10-23T07:33:39.815Z,96389.41
2022-10-23T07:36:08.075Z,96396.59
2022-10-23T07:38:34.766Z,96402.66
2022-10-23T07:41:01.711Z,96405.47
2022-10-23T07:43:28.584Z,96400.19
2022-10-23T07:45:55.628Z,96406.88
2022-10-23T07:48:23.935Z,96413.81
2022-10-23T07:50:51.381Z,96403.94
2022-10-23T07:53:20.611Z,96404.47
2022-10-23T07:55:58.990Z,96394.03
2022-10-23T07:58:27.068Z,96395.50
2022-10-23T08:01:02.572Z,96393.91
2022-10-23T08:03:32.156Z,96394.59
2022-10-23T08:05:59.522Z,96394.47
2022-10-23T08:08:26.806Z,96389.41
2022-10-23T08:10:55.080Z,96385.00
2022-10-23T08:13:22.503Z,96381.28
2022-10-23T08:15:51.398Z,96370.03
2022-10-23T08:18:18.231Z,96380.69
2022-10-23T08:20:47.186Z,96378.97
2022-10-23T08:23:17.030Z,96375.63
2022-10-23T08:25:44.084Z,96379.53
2022-10-23T08:28:10.860Z,96381.06
2022-10-23T08:30:37.835Z,96378.66
2022-10-23T08:33:07.787Z,96375.63
2022-10-23T08:35:38.701Z,96371.56
2022-10-23T08:38:06.414Z,96364.63
2022-10-23T08:40:35.039Z,96371.56
2022-10-23T08:43:12.677Z,96373.50
2022-10-23T08:46:00.175Z,96376.22
2022-10-23T08:48:53.305Z,96380.50
2022-10-23T08:51:30.026Z,96380.63
2022-10-23T08:54:03.047Z,96383.66
2022-10-23T08:56:39.229Z,96377.94
2022-10-23T08:59:28.309Z,96384.41
2022-10-23T09:01:54.902Z,96378.84
2022-10-23T09:04:21.623Z,96389.22
2022-10-23T09:07:20.631Z,96385.59
2022-10-23T09:10:23.565Z,96376.59
2022-10-23T09:12:50.367Z,96371.03
2022-10-23T09:15:28.435Z,96368.34
2022-10-23T09:17:59.903Z,96360.63
2022-10-23T09:20:35.658Z,96362.56
2022-10-23T09:23:19.452Z,96349.78
2022-10-23T09:25:47.967Z,96348.28
2022-10-23T09:28:27.439Z,96345.22
2022-10-23T09:30:54.156Z,96343.13
2022-10-23T09:33:30.908Z,96344.81
2022-10-23T09:36:00.640Z,96338.97
2022-10-23T09:38:46.859Z,96337.63
2022-10-23T09:41:16.055Z,96331.63
2022-10-23T09:43:43.280Z,96335.66
2022-10-23T09:46:11.944Z,96334.66
2022-10-23T09:48:40.078Z,96330.84
2022-10-23T09:51:19.715Z,96331.28
2022-10-23T09:53:53.830Z,96338.56
2022-10-23T09:56:24.815Z,96345.44
2022-10-23T09:59:14.888Z,96345.81
2022-10-23T10:01:54.262Z,96334.31
2022-10-23T10:04:34.124Z,96332.53
2022-10-23T10:07:03.059Z,96321.47
2022-10-23T10:09:29.832Z,96315.38
2022-10-23T10:12:19.192Z,96322.75
2022-10-23T10:14:55.295Z,96312.66
2022-10-23T10:17:35.150Z,96308.91
2022-10-23T10:20:06.965Z,96301.47
2022-10-23T10:22:49.088Z,96308.72
2022-10-23T10:25:24.159Z,96289.91
2022-10-23T10:27:53.745Z,96286.94
2022-10-23T10:30:24.466Z,96280.53
2022-10-23T10:32:59.706Z,96272.44
2022-10-23T10:35:40.711Z,96272.81
2022-10-23T10:38:35.103Z,96275.78
2022-10-23T10:41:10.725Z,96272.81
2022-10-23T10:43:40.526Z,96270.56
2022-10-23T10:46:33.162Z,96260.75
2022-10-23T10:49:01.947Z,96265.56
2022-10-23T10:52:01.358Z,96261.00
2022-10-23T10:54:48.378Z,96255.94
2022-10-23T10:57:31.545Z,96250.59
2022-10-23T11:00:01.391Z,96243.75
2022-10-23T11:02:34.942Z,96239.31
2022-10-23T11:05:19.906Z,96233.75
2022-10-23T11:08:14.554Z,96236.44
2022-10-23T11:10:50.414Z,96225.56
2022-10-23T11:13:28.683Z,96211.38
2022-10-23T11:16:00.651Z,96217.09
2022-10-23T11:18:30.827Z,96209.50
2022-10-23T11:21:22.723Z,96198.34
2022-10-23T11:24:07.369Z,96195.72
2022-10-23T11:27:18.926Z,96185.38
2022-10-23T11:30:08.446Z,96180.44
2022-10-23T11:32:53.078Z,96179.09
2022-10-23T11:35:31.829Z,96173.06
2022-10-23T11:38:08.486Z,96164.66
2022-10-23T11:40:35.260Z,96156.03
2022-10-23T11:43:01.879Z,96151.16
2022-10-23T11:45:37.488Z,96149.59
2022-10-23T11:48:22.741Z,96139.25
2022-10-23T11:50:51.950Z,96137.97
2022-10-23T11:53:47.758Z,96132.41
2022-10-23T11:56:14.706Z,96130.34
2022-10-23T11:58:48.171Z,96118.84
2022-10-23T12:01:36.522Z,96126.28
2022-10-23T12:04:18.082Z,96122.84
2022-10-23T12:06:48.643Z,96119.63
2022-10-23T12:09:33.587Z,96111.94
2022-10-23T12:12:08.992Z,96115.22
2022-10-23T12:14:48.126Z,96116.28
2022-10-23T12:17:36.842Z,96112.25
2022-10-23T12:20:12.461Z,96100.16
2022-10-23T12:23:03.026Z,96100.34
2022-10-23T12:26:03.278Z,96093.88
2022-10-23T12:28:46.257Z,96086.63
2022-10-23T12:31:45.629Z,96091.00
2022-10-23T12:34:23.238Z,96085.88
2022-10-23T12:37:11.500Z,96086.53
2022-10-23T12:39:39.209Z,96081.63
2022-10-23T12:42:15.894Z,96079.28
2022-10-23T12:44:42.802Z,96073.38
2022-10-23T12:47:18.818Z,96080.41
2022-10-23T12:49:50.040Z,96088.38
2022-10-23T12:52:18.978Z,96088.00
2022-10-23T12:54:45.577Z,96088.19
2022-10-23T12:57:26.734Z,96090.47
2022-10-23T12:59:57.934Z,96093.38
2022-10-23T13:02:30.349Z,96087.97
2022-10-23T13:05:02.077Z,96080.47
2022-10-23T13:07:31.757Z,96091.84
2022-10-23T13:09:59.072Z,96086.59
2022-10-23T13:12:32.007Z,96076.56
2022-10-23T13:15:07.293Z,96079.19
2022-10-23T13:17:46.968Z,96074.31
2022-10-23T13:20:28.689Z,96077.22
2022-10-23T13:23:02.096Z,96075.28
2022-10-23T13:25:34.275Z,96073.69
2022-10-23T13:28:22.136Z,96067.75
2022-10-23T13:31:07.675Z,96060.66
2022-10-23T13:33:40.367Z,96061.06
2022-10-23T13:36:22.272Z,96060.50
2022-10-23T13:39:04.667Z,96056.47
2022-10-23T13:41:38.206Z,96061.47
2022-10-23T13:44:04.965Z,96054.25
2022-10-23T13:46:31.959Z,96051.97
2022-10-23T13:48:58.555Z,96051.84
2022-10-23T13:51:28.528Z,96051.78
2022-10-23T13:53:56.436Z,96048.78
2022-10-23T13:56:26.734Z,96057.16
2022-10-23T13:58:53.828Z,96058.50
2022-10-23T14:01:23.525Z,96057.09
2022-10-23T14:03:51.327Z,96060.09
2022-10-23T14:06:18.194Z,96065.41
2022-10-23T14:08:44.839Z,96047.00
2022-10-23T14:13:45.143Z,96059.53
2022-10-23T14:16:16.579Z,96054.25
2022-10-23T14:18:43.398Z,96058.91
2022-10-23T14:21:13.163Z,96066.94
2022-10-23T14:23:39.948Z,96058.38
2022-10-23T14:26:09.511Z,96057.16
2022-10-23T14:28:36.556Z,96059.19
2022-10-23T14:31:10.731Z,96062.78
2022-10-23T14:33:38.621Z,96065.09
2022-10-23T14:36:05.771Z,96052.81
2022-10-23T14:38:32.536Z,96055.66
2022-10-23T14:40:59.236Z,96052.72
2022-10-23T14:43:26.103Z,96052.91
2022-10-23T14:45:52.734Z,96054.00
2022-10-23T14:48:19.790Z,96053.19
2022-10-23T14:50:49.372Z,96057.59
2022-10-23T14:53:16.399Z,96060.63
2022-10-23T14:55:43.055Z,96067.44
2022-10-23T14:58:09.740Z,96062.44
2022-10-23T15:00:36.344Z,96061.69
2022-10-23T15:03:03.140Z,96065.59
2022-10-23T15:05:29.795Z,96072.88
2022-10-23T15:07:58.541Z,96063.13
2022-10-23T15:10:25.199Z,96057.44
2022-10-23T15:12:51.855Z,96062.44
2022-10-23T15:15:18.503Z,96053.25
2022-10-23T15:17:45.127Z,96054.72
2022-10-23T15:20:11.768Z,96051.31
2022-10-23T15:22:38.417Z,96047.78
2022-10-23T15:25:05.547Z,96034.94
2022-10-23T15:27:32.172Z,96036.84
2022-10-23T15:29:58.769Z,96047.69
2022-10-23T15:32:25.365Z,96039.16
2022-10-23T15:34:53.747Z,96033.25
2022-10-23T15:37:20.347Z,96042.78
2022-10-23T15:39:46.988Z,96052.47
2022-10-23T15:42:13.730Z,96049.69
2022-10-23T15:44:41.260Z,96041.75
2022-10-23T15:47:07.905Z,96042.47
2022-10-23T15:49:35.006Z,96039.63
2022-10-23T15:52:02.663Z,96035.22
2022-10-23T15:54:32.036Z,96037.06
2022-10-23T15:57:00.163Z,96037.06
2022-10-23T15:59:28.407Z,96039.59
2022-10-23T16:01:55.794Z,96038.69
2022-10-23T16:04:22.786Z,96046.47
2022-10-23T16:06:49.741Z,96043.31
2022-10-23T16:09:17.351Z,96045.41
2022-10-23T16:11:44.261Z,96053.13
2022-10-23T16:14:14.073Z,96038.94
2022-10-23T16:16:40.795Z,96034.91
2022-10-23T16:19:07.675Z,96042.13
2022-10-23T16:21:36.374Z,96033.81
2022-10-23T16:24:04.916Z,96035.16
2022-10-23T16:26:32.362Z,96040.75
2022-10-23T16:29:01.751Z,96043.94
2022-10-23T16:31:29.802Z,96042.19
2022-10-23T16:34:01.482Z,96032.81
2022-10-23T16:36:28.995Z,96028.34
2022-10-23T16:38:55.836Z,96039.94
2022-10-23T16:41:22.467Z,96043.03
2022-10-23T16:43:49.148Z,96046.94
2022-10-23T16:46:18.447Z,96045.63
2022-10-23T16:48:45.635Z,96051.56
2022-10-23T16:51:18.143Z,96045.06
2022-10-23T16:53:45.743Z,96058.31
2022-10-23T16:56:15.353Z,96064.94
2022-10-23T16:58:42.861Z,96071.47
2022-10-23T17:01:12.335Z,96076.66
2022-10-23T17:03:43.850Z,96074.19
2022-10-23T17:06:13.233Z,96072.25
2022-10-23T17:08:40.785Z,96076.50
2022-10-23T17:11:16.384Z,96079.78
2022-10-23T17:13:46.237Z,96074.69
2022-10-23T17:16:20.646Z,96087.00
2022-10-23T17:18:47.896Z,96087.09
2022-10-23T17:21:16.460Z,96075.53
2022-10-23T17:23:43.860Z,96067.38
2022-10-23T17:26:12.886Z,96066.28
2022-10-23T17:28:42.340Z,96072.50
2022-10-23T17:31:15.071Z,96068.81
2022-10-23T17:33:42.312Z,96064.66
2022-10-23T17:36:10.326Z,96077.56
2022-10-23T17:38:38.937Z,96080.00
2022-10-23T17:41:07.716Z,96067.13
2022-10-23T17:43:35.515Z,96072.13
2022-10-23T17:46:06.806Z,96072.34
2022-10-23T17:48:34.350Z,96080.25
2022-10-23T17:51:06.763Z,96081.06
2022-10-23T17:53:35.335Z,96076.31
2022-10-23T17:56:04.111Z,96078.91
2022-10-23T17:58:31.479Z,96068.97
2022-10-23T18:01:03.741Z,96070.78
2022-10-23T18:03:30.454Z,96073.06
2022-10-23T18:05:57.042Z,96065.81
2022-10-23T18:08:24.415Z,96063.31
2022-10-23T18:10:50.992Z,96074.19
2022-10-23T18:13:17.579Z,96065.47
2022-10-23T18:15:44.188Z,96062.63
2022-10-23T18:18:10.796Z,96060.34
2022-10-23T18:20:41.022Z,96051.06
2022-10-23T18:23:08.077Z,96044.50
2022-10-23T18:25:35.058Z,96038.41
2022-10-23T18:28:02.636Z,96040.22
2022-10-23T18:30:29.487Z,96047.13
2022-10-23T18:32:58.189Z,96055.22
2022-10-23T18:35:25.355Z,96060.63
2022-10-23T18:37:52.021Z,96060.19
2022-10-23T18:40:19.442Z,96072.59
2022-10-23T18:42:47.742Z,96065.84
2022-10-23T18:45:14.426Z,96063.56
2022-10-23T18:47:41.164Z,96067.84
2022-10-23T18:50:08.413Z,96062.63
2022-10-23T18:52:35.011Z,96063.09
2022-10-23T18:55:01.725Z,96064.00
2022-10-23T18:57:28.315Z,96054.88
2022-10-23T18:59:58.310Z,96047.81
2022-10-23T19:02:24.994Z,96044.97
2022-10-23T19:04:51.680Z,96050.25
2022-10-23T19:07:18.435Z,96046.97
2022-10-23T19:09:45.138Z,96049.09
2022-10-23T19:12:11.897Z,96043.28
2022-10-23T19:14:39.162Z,96039.84
2022-10-23T19:17:29.878Z,96043.41
2022-10-23T19:20:16.584Z,96043.16
2022-10-23T19:22:46.601Z,96050.53
2022-10-23T19:25:26.890Z,96050.09
2022-10-23T19:27:55.570Z,96045.28
2022-10-23T19:30:23.045Z,96038.53
2022-10-23T19:32:50.652Z,96044.75
2022-10-23T19:35:20.022Z,96048.22
2022-10-23T19:37:47.560Z,96042.75
2022-10-23T19:40:15.387Z,96049.03
2022-10-23T19:42:43.113Z,96048.81
2022-10-23T19:45:13.565Z,96041.84
2022-10-23T19:47:41.053Z,96046.00
2022-10-23T19:50:10.027Z,96044.88
2022-10-23T19:52:37.133Z,96045.06
2022-10-23T19:55:05.976Z,96047.19
2022-10-23T19:57:35.624Z,96049.72
2022-10-23T20:00:02.447Z,96060.78
2022-10-23T20:02:29.207Z,96055.34
2022-10-23T20:04:56.047Z,96049.50
2022-10-23T20:07:22.669Z,96048.78
2022-10-23T20:09:49.291Z,96051.97
2022-10-23T20:12:15.979Z,96057.19
2022-10-23T20:14:42.631Z,96054.28
2022-10-23T20:17:09.231Z,96061.31
2022-10-23T20:19:35.839Z,96061.44
2022-10-23T20:22:02.544Z,96054.78
2022-10-23T20:24:29.192Z,96062.63
2022-10-23T20:26:56.062Z,96063.03
2022-10-23T20:29:23.348Z,96056.03
2022-10-23T20:31:50.011Z,96057.22
2022-10-23T20:34:17.063Z,96057.19
2022-10-23T20:36:47.002Z,96047.28
2022-10-23T20:39:29.632Z,96050.41
2022-10-23T20:41:56.717Z,96052.03
2022-10-23T20:44:24.117Z,96058.09
2022-10-23T20:46:51.353Z,96059.78
2022-10-23T20:49:19.194Z,96055.34
2022-10-23T20:51:46.002Z,96061.34
2022-10-23T20:54:12.600Z,96055.28
2022-10-23T20:56:39.629Z,96056.56
2022-10-23T20:59:10.606Z,96064.22
2022-10-23T21:01:40.967Z,96069.13
2022-10-23T21:04:08.382Z,96068.03
2022-10-23T21:06:46.278Z,96071.50
2022-10-23T21:09:21.754Z,96072.78
2022-10-23T21:11:48.384Z,96071.22
2022-10-23T21:14:15.010Z,96064.53
2022-10-23T21:16:44.365Z,96061.25
2022-10-23T21:19:14.350Z,96074.22
2022-10-23T21:21:40.993Z,96068.75
2022-10-23T21:24:10.437Z,96070.81
2022-10-23T21:26:37.131Z,96075.00
2022-10-23T21:29:17.873Z,96075.31
2022-10-23T21:31:45.632Z,96077.19
2022-10-23T21:34:12.346Z,96079.13
2022-10-23T21:36:53.826Z,96073.06
2022-10-23T21:39:25.750Z,96073.53
2022-10-23T21:41:52.330Z,96076.41
2022-10-23T21:44:18.974Z,96084.84
2022-10-23T21:46:45.776Z,96070.38
2022-10-23T21:49:12.927Z,96079.28
2022-10-23T21:51:40.016Z,96074.69
2022-10-23T21:54:10.334Z,96080.72
2022-10-23T21:56:42.521Z,96070.72
2022-10-23T21:59:13.412Z,96073.75
2022-10-23T22:01:43.169Z,96068.50
2022-10-23T22:04:11.951Z,96066.59
2022-10-23T22:06:38.971Z,96074.22
2022-10-23T22:09:06.423Z,96079.59
2022-10-23T22:11:33.620Z,96082.81
2022-10-23T22:14:00.753Z,96079.94
2022-10-23T22:16:27.822Z,96080.72
2022-10-23T22:18:54.527Z,96086.28
2022-10-23T22:21:25.251Z,96088.19
2022-10-23T22:23:54.877Z,96093.09
2022-10-23T22:26:32.107Z,96094.69
2022-10-23T22:29:01.093Z,96097.56
2022-10-23T22:31:30.093Z,96108.50
2022-10-23T22:33:57.809Z,96101.22
2022-10-23T22:36:25.149Z,96112.34
2022-10-23T22:38:52.526Z,96112.16
2022-10-23T22:41:20.070Z,96116.91
2022-10-23T22:43:46.767Z,96120.25
2022-10-23T22:46:19.109Z,96122.31
2022-10-23T22:48:46.162Z,96124.41
2022-10-23T22:51:14.806Z,96127.09
2022-10-23T22:53:42.189Z,96133.56
2022-10-23T22:56:11.224Z,96140.19
2022-10-23T22:58:37.948Z,96139.13
2022-10-23T23:01:24.835Z,96140.41
2022-10-23T23:03:52.271Z,96148.47
2022-10-23T23:06:19.814Z,96160.31
2022-10-23T23:08:47.205Z,96161.75
2022-10-23T23:11:16.195Z,96174.75
2022-10-23T23:13:43.304Z,96161.81
2022-10-23T23:16:24.407Z,96148.97
2022-10-23T23:18:51.924Z,96151.50
2022-10-23T23:21:19.507Z,96152.47
2022-10-23T23:23:46.879Z,96147.53
2022-10-23T23:26:14.778Z,96143.94
2022-10-23T23:28:41.733Z,96142.78
2022-10-23T23:31:16.666Z,96146.00
2022-10-23T23:33:43.775Z,96149.31
2022-10-23T23:36:13.459Z,96245.50
2022-10-23T23:38:40.303Z,96295.44
2022-10-23T23:41:10.878Z,96268.38
2022-10-23T23:43:37.447Z,96261.34
2022-10-23T23:46:04.177Z,96262.94
2022-10-23T23:48:30.794Z,96272.50
2022-10-23T23:50:57.415Z,96275.47
2022-10-23T23:53:24.199Z,96288.41
2022-10-23T23:55:50.867Z,96296.53
2022-10-23T23:58:17.469Z,96303.28
